Time;durP1;ratioP1;P1;durP2;ratioP2;P2;SDS_P1;SDS_P2;PMS_P1;PMS_P2;Temp;Humidity;BMP_temperature;BMP_pressure;BME280_temperature;BME280_humidity;BME280_pressure;Samples;Min_cycle;Max_cycle;Signal;HPM_P1;HPM_P2
2022/04/27 00:01:30;;;;;;;10.20;4.90;;;;;;;-142.75;100.00;78736.19;5067249;28;20112;-66
2022/04/27 00:03:55;;;;;;;5.80;3.90;;;;;;;-142.75;100.00;78738.16;5067301;28;20095;-66
2022/04/27 00:06:21;;;;;;;7.43;4.13;;;;;;;-142.75;100.00;78732.25;5066952;28;20393;-65
2022/04/27 00:08:46;;;;;;;7.55;4.07;;;;;;;-142.75;100.00;78724.38;5050438;28;20794;-65
2022/04/27 00:11:11;;;;;;;7.60;3.90;;;;;;;-142.75;100.00;78734.22;5068215;28;20054;-66
2022/04/27 00:13:37;;;;;;;4.32;2.92;;;;;;;-142.75;100.00;78742.09;5066984;28;20035;-65
2022/04/27 00:16:02;;;;;;;8.48;3.40;;;;;;;-142.75;100.00;78742.09;5067188;28;20024;-66
2022/04/27 00:18:28;;;;;;;6.55;3.38;;;;;;;-142.75;100.00;78740.13;5067204;28;20032;-66
2022/04/27 00:20:53;;;;;;;5.85;4.00;;;;;;;-142.75;100.00;78732.25;5067796;28;20028;-66
2022/04/27 00:23:19;;;;;;;5.85;4.18;;;;;;;-142.75;100.00;78738.16;5050263;28;20462;-66
2022/04/27 00:25:44;;;;;;;7.53;4.10;;;;;;;-142.75;100.00;78742.09;5066960;28;20424;-66
2022/04/27 00:28:10;;;;;;;8.35;4.63;;;;;;;-142.75;100.00;78738.16;5067005;28;20051;-66
2022/04/27 00:30:36;;;;;;;6.25;4.07;;;;;;;-142.75;100.00;78736.19;5066697;28;20055;-66
2022/04/27 00:33:01;;;;;;;7.93;4.07;;;;;;;-142.75;100.00;78738.16;5068068;28;20028;-66
2022/04/27 00:35:26;;;;;;;9.32;5.18;;;;;;;-142.75;100.00;78738.16;5066860;28;20108;-66
2022/04/27 00:37:52;;;;;;;7.82;4.07;;;;;;;-142.75;100.00;78718.47;5066824;28;20442;-65
2022/04/27 00:40:17;;;;;;;8.52;4.50;;;;;;;-142.75;100.00;78736.19;5066497;28;20707;-66
2022/04/27 00:42:42;;;;;;;6.03;3.45;;;;;;;-142.75;100.00;78738.16;5066645;28;20055;-65
2022/04/27 00:45:09;;;;;;;4.57;3.10;;;;;;;-142.75;100.00;78738.16;5067302;28;20056;-66
2022/04/27 00:47:34;;;;;;;7.03;3.83;;;;;;;-142.75;100.00;78740.13;5066561;28;20059;-66
2022/04/27 00:50:02;;;;;;;9.95;4.78;;;;;;;-142.75;100.00;78740.13;5066484;28;20060;-66
2022/04/27 00:52:30;;;;;;;7.33;4.23;;;;;;;-142.75;100.00;78746.03;5066616;28;20021;-66
2022/04/27 00:54:56;;;;;;;8.57;4.67;;;;;;;-142.75;100.00;78748.03;5050165;28;20039;-66
2022/04/27 00:57:25;;;;;;;7.68;3.72;;;;;;;-142.75;100.00;78736.19;5067820;28;20020;-66
2022/04/27 00:59:51;;;;;;;5.60;3.40;;;;;;;-142.75;100.00;78744.09;5067804;28;20024;-65
2022/04/27 01:02:17;;;;;;;9.50;4.43;;;;;;;-142.75;100.00;78746.03;5066596;28;20035;-66
2022/04/27 01:04:43;;;;;;;6.18;3.88;;;;;;;-142.75;100.00;78751.97;5067802;28;20024;-66
2022/04/27 01:07:09;;;;;;;;;;;;;;;-142.75;100.00;78759.84;5049267;28;20393;-66
2022/04/27 01:09:35;;;;;;;4.80;3.07;;;;;;;-142.75;100.00;78765.75;5066157;28;19916;-66
2022/04/27 01:12:01;;;;;;;5.03;2.93;;;;;;;-142.75;100.00;78773.63;5067690;28;20116;-66
2022/04/27 01:14:27;;;;;;;5.32;3.25;;;;;;;-142.75;100.00;78785.44;5066845;28;20020;-66
2022/04/27 01:16:57;;;;;;;6.95;3.03;;;;;;;-142.75;100.00;78797.25;5067590;28;20024;-66
2022/04/27 01:19:24;;;;;;;6.20;3.40;;;;;;;-142.75;100.00;78791.34;5066547;28;20116;-66
2022/04/27 01:21:58;;;;;;;8.17;4.30;;;;;;;-142.75;100.00;78809.06;5067246;28;20082;-66
2022/04/27 01:24:25;;;;;;;7.70;3.60;;;;;;;-142.75;100.00;78803.16;5068129;28;20035;-66
2022/04/27 01:26:52;;;;;;;7.30;3.83;;;;;;;-142.75;100.00;78811.03;5070012;28;20028;-66
2022/04/27 01:29:19;;;;;;;5.43;3.63;;;;;;;-142.75;100.00;78803.16;5071375;28;20077;-66
2022/04/27 01:31:45;;;;;;;7.23;3.60;;;;;;;-142.75;100.00;78816.94;5069533;28;20116;-66
2022/04/27 01:34:12;;;;;;;5.93;3.47;;;;;;;-142.75;100.00;78840.59;5070147;28;20416;-66
2022/04/27 01:36:38;;;;;;;6.10;3.63;;;;;;;-142.75;100.00;78834.69;5070885;28;20430;-65
2022/04/27 01:39:04;;;;;;;8.10;4.65;;;;;;;-142.75;100.00;78826.81;5071089;28;20048;-65
2022/04/27 01:41:29;;;;;;;9.48;5.15;;;;;;;-142.75;100.00;78826.81;5070604;28;20025;-66
2022/04/27 01:43:55;;;;;;;10.77;5.47;;;;;;;-142.75;100.00;78822.88;5069875;28;20496;-66
2022/04/27 01:46:20;;;;;;;6.88;4.07;;;;;;;-142.75;100.00;78820.88;5069838;28;20024;-66
2022/04/27 01:48:45;;;;;;;10.30;5.47;;;;;;;-142.75;100.00;78826.81;5071048;28;20032;-65
2022/04/27 01:51:11;;;;;;;5.72;3.83;;;;;;;-142.75;100.00;78848.47;5070566;28;20048;-66
2022/04/27 01:56:21;;;;;;;9.43;5.00;;;;;;;-142.75;100.00;78846.50;5071002;28;20086;-66
2022/04/27 01:58:46;;;;;;;6.68;4.38;;;;;;;-142.75;100.00;78840.59;5069576;28;20033;-66
2022/04/27 02:01:12;;;;;;;6.70;4.03;;;;;;;-142.75;100.00;78832.72;5069113;28;20454;-66
2022/04/27 02:03:39;;;;;;;8.55;4.78;;;;;;;-142.75;100.00;78836.66;5070741;28;20078;-65
2022/04/27 02:06:05;;;;;;;11.77;5.87;;;;;;;-142.75;100.00;78834.69;5069334;28;20024;-66
2022/04/27 02:08:30;;;;;;;7.88;4.38;;;;;;;-142.75;100.00;78856.34;5069164;28;20090;-66
2022/04/27 02:10:55;;;;;;;7.80;4.95;;;;;;;-142.75;100.00;78860.28;5068678;28;20028;-66
2022/04/27 02:13:21;;;;;;;9.38;4.75;;;;;;;-142.75;100.00;78868.16;5069122;28;20393;-66
2022/04/27 02:15:46;;;;;;;10.27;4.85;;;;;;;-142.75;100.00;78866.19;5070915;28;20489;-66
2022/04/27 02:18:11;;;;;;;9.70;5.43;;;;;;;-142.75;100.00;78866.19;5070334;28;20099;-66
2022/04/27 02:20:37;;;;;;;8.65;5.60;;;;;;;-142.75;100.00;78852.41;5068903;28;20062;-66
2022/04/27 02:23:02;;;;;;;8.65;5.13;;;;;;;-142.75;100.00;78862.25;5068879;28;20016;-66
2022/04/27 02:25:27;;;;;;;10.38;5.68;;;;;;;-142.75;100.00;78856.34;5068878;28;20029;-66
2022/04/27 02:27:53;;;;;;;8.57;4.93;;;;;;;-142.75;100.00;78860.28;5068917;28;20554;-65
2022/04/27 02:30:19;;;;;;;10.68;5.68;;;;;;;-142.75;100.00;78860.28;5068678;28;20024;-66
2022/04/27 02:32:46;;;;;;;6.03;3.83;;;;;;;-142.75;100.00;78850.44;5070105;28;20016;-66
2022/04/27 02:35:12;;;;;;;6.20;3.80;;;;;;;-142.75;100.00;78866.19;5068309;28;20497;-66
2022/04/27 02:37:38;;;;;;;11.97;3.30;;;;;;;-142.75;100.00;78887.84;5068734;28;20119;-66
2022/04/27 02:40:04;;;;;;;;;;;;;;;-142.75;100.00;78893.78;5068745;28;20020;-65
2022/04/27 02:42:30;;;;;;;10.27;4.77;;;;;;;-142.75;100.00;78887.84;5051856;28;20377;-66
2022/04/27 02:44:56;;;;;;;10.35;5.88;;;;;;;-142.75;100.00;78881.94;5070318;28;20032;-66
2022/04/27 02:47:22;;;;;;;14.20;6.33;;;;;;;-142.75;100.00;78874.06;5068423;28;20016;-65
2022/04/27 02:52:31;;;;;;;12.53;6.10;;;;;;;-142.75;100.00;78862.25;5069904;28;20508;-65
2022/04/27 02:54:56;;;;;;;10.77;5.37;;;;;;;-142.75;100.00;78856.34;5069692;28;20025;-66
2022/04/27 02:57:22;;;;;;;11.23;5.47;;;;;;;-142.75;100.00;78854.38;5069630;28;20274;-65
2022/04/27 02:59:47;;;;;;;11.05;5.63;;;;;;;-142.75;100.00;78850.44;5069590;28;20274;-66
2022/04/27 03:02:13;;;;;;;13.15;6.63;;;;;;;-142.75;100.00;78850.44;5068192;28;20032;-66
2022/04/27 03:04:38;;;;;;;12.98;5.68;;;;;;;-142.75;100.00;78856.34;5069455;28;20036;-65
2022/04/27 03:07:04;;;;;;;10.48;6.22;;;;;;;-142.75;100.00;78850.44;5069399;28;20031;-65
2022/04/27 03:09:29;;;;;;;10.50;6.25;;;;;;;-142.75;100.00;78858.31;5069259;28;20024;-66
2022/04/27 03:11:55;;;;;;;12.27;6.32;;;;;;;-142.75;100.00;78846.50;5067671;28;20021;-66
2022/04/27 03:14:21;;;;;;;10.45;5.97;;;;;;;-142.75;100.00;78856.34;5069795;28;20537;-66
2022/04/27 03:16:47;;;;;;;12.18;6.28;;;;;;;-142.75;100.00;78866.19;5069181;28;20031;-66
2022/04/27 03:19:13;;;;;;;9.63;6.20;;;;;;;-142.75;100.00;78856.34;5069437;28;20112;-66
2022/04/27 03:21:38;;;;;;;13.27;5.72;;;;;;;-142.75;100.00;78858.31;5068751;28;20095;-65
2022/04/27 03:24:04;;;;;;;10.63;6.63;;;;;;;-142.75;100.00;78844.53;5067658;28;20784;-64
2022/04/27 03:26:29;;;;;;;12.65;6.63;;;;;;;-142.75;100.00;78844.53;5069034;28;20500;-65
2022/04/27 03:28:55;;;;;;;11.35;6.55;;;;;;;-142.75;100.00;78840.59;5067611;28;20040;-65
2022/04/27 03:31:20;;;;;;;12.07;7.03;;;;;;;-142.75;100.00;78856.34;5068582;28;20033;-65
2022/04/27 03:33:45;;;;;;;12.53;6.33;;;;;;;-142.75;100.00;78858.31;5069184;28;20485;-65
2022/04/27 03:36:11;;;;;;;12.23;6.07;;;;;;;-142.75;100.00;78870.13;5068641;28;20274;-65
2022/04/27 03:38:38;;;;;;;12.10;6.47;;;;;;;-142.75;100.00;78858.31;5068797;28;20508;-65
2022/04/27 03:41:04;;;;;;;12.53;6.30;;;;;;;-142.75;100.00;78838.63;5068327;28;20024;-65
2022/04/27 03:43:29;;;;;;;;;;;;;;;-142.75;100.00;78854.38;5068895;28;20086;-65
2022/04/27 03:45:54;;;;;;;12.57;6.57;;;;;;;-142.75;100.00;78840.59;5069130;28;20412;-65
2022/04/27 03:48:20;;;;;;;14.18;6.25;;;;;;;-142.75;100.00;78842.56;5067904;28;20431;-66
2022/04/27 03:50:45;;;;;;;11.23;6.27;;;;;;;-142.75;100.00;78842.56;5068388;28;20052;-66
2022/04/27 03:53:10;;;;;;;13.17;5.83;;;;;;;-142.75;100.00;78850.44;5068532;28;20274;-65
2022/04/27 03:55:36;;;;;;;9.52;5.28;;;;;;;-142.75;100.00;78856.34;5068478;28;20123;-66
2022/04/27 03:58:05;;;;;;;10.00;6.18;;;;;;;-142.75;100.00;78854.38;5068539;28;20508;-65
2022/04/27 04:00:30;;;;;;;12.00;6.27;;;;;;;-142.75;100.00;78854.38;5068036;28;20020;-64
2022/04/27 04:02:59;;;;;;;13.93;6.70;;;;;;;-142.75;100.00;78848.47;5068621;28;20081;-65
2022/04/27 04:05:24;;;;;;;11.40;6.33;;;;;;;-142.75;100.00;78850.44;5068272;28;20384;-65
2022/04/27 04:07:50;;;;;;;13.05;6.72;;;;;;;-142.75;100.00;78842.56;5068414;28;20103;-66
2022/04/27 04:10:15;;;;;;;14.07;6.32;;;;;;;-142.75;100.00;78836.66;5092595;22;20041;-66
2022/04/27 04:12:40;;;;;;;11.38;6.35;;;;;;;-142.75;100.00;78834.69;5086995;28;20030;-67
2022/04/27 04:15:06;;;;;;;12.20;7.00;;;;;;;-142.75;100.00;78828.78;5088560;28;20032;-66
2022/04/27 04:17:31;;;;;;;12.38;6.90;;;;;;;-142.75;100.00;78838.63;5088399;28;20036;-65
2022/04/27 04:19:56;;;;;;;13.50;6.53;;;;;;;-142.75;100.00;78848.47;5078042;28;20033;-66
2022/04/27 04:22:22;;;;;;;14.63;7.00;;;;;;;-142.75;100.00;78868.16;5068241;28;20293;-67
2022/04/27 04:30:15;;;;;;;10.93;6.67;;;;;;;-142.75;100.00;78878.00;5067656;28;20030;-66
2022/04/27 04:32:41;;;;;;;13.95;6.40;;;;;;;-142.75;100.00;78870.13;5068330;28;20108;-66
2022/04/27 04:35:07;;;;;;;13.23;6.43;;;;;;;-142.75;100.00;78878.00;5068207;28;20036;-66
2022/04/27 04:37:33;;;;;;;12.83;6.30;;;;;;;-142.75;100.00;78885.88;5068054;28;20089;-66
2022/04/27 04:39:58;;;;;;;9.88;5.32;;;;;;;-142.75;100.00;78901.66;5067759;28;20458;-66
2022/04/27 04:42:23;;;;;;;10.70;5.40;;;;;;;-142.75;100.00;78899.69;5068106;28;20016;-66
2022/04/27 04:44:49;;;;;;;11.43;5.88;;;;;;;-142.75;100.00;78921.34;5068525;28;20392;-66
2022/04/27 04:47:14;;;;;;;9.52;5.00;;;;;;;-142.75;100.00;78944.97;5067955;28;20032;-67
2022/04/27 04:49:39;;;;;;;11.23;5.28;;;;;;;-142.75;100.00;78937.09;5067838;28;20485;-66
2022/04/27 04:52:07;;;;;;;10.68;5.28;;;;;;;-142.75;100.00;78931.19;5068000;28;20024;-66
2022/04/27 04:54:33;;;;;;;12.20;6.27;;;;;;;-142.75;100.00;78941.03;5068303;28;20120;-66
2022/04/27 04:56:58;;;;;;;10.75;6.32;;;;;;;-142.75;100.00;78917.41;5068258;28;20136;-65
2022/04/27 04:59:23;;;;;;;10.25;5.72;;;;;;;-142.75;100.00;78909.53;5069686;28;20074;-66
2022/04/27 05:01:49;;;;;;;9.18;4.55;;;;;;;-142.75;100.00;78903.63;5071826;28;20036;-66
2022/04/27 05:04:15;;;;;;;7.70;3.60;;;;;;;-142.75;100.00;78893.78;5073119;28;20052;-66
2022/04/27 05:06:40;;;;;;;6.50;3.87;;;;;;;-142.75;100.00;78893.78;5074053;28;20833;-66
2022/04/27 05:09:06;;;;;;;7.20;4.25;;;;;;;-142.75;100.00;78881.94;5069891;28;20024;-66
2022/04/27 05:11:31;;;;;;;5.60;3.22;;;;;;;-142.75;100.00;78909.53;5070961;28;20028;-66
2022/04/27 05:13:56;;;;;;;5.80;3.47;;;;;;;-142.75;100.00;78905.59;5071338;28;20020;-66
2022/04/27 05:16:22;;;;;;;6.68;3.42;;;;;;;-142.75;100.00;78887.84;5071541;28;20054;-66
2022/04/27 05:18:47;;;;;;;5.65;3.17;;;;;;;-142.75;100.00;78889.81;5070319;28;20500;-66
2022/04/27 05:21:12;;;;;;;5.90;2.85;;;;;;;-142.75;100.00;78901.66;5071313;28;20035;-66
2022/04/27 05:23:38;;;;;;;5.47;3.33;;;;;;;-142.75;100.00;78903.63;5071547;28;20028;-67
2022/04/27 05:26:03;;;;;;;4.20;2.50;;;;;;;-142.75;100.00;78883.91;5071481;28;20494;-66
2022/04/27 05:31:53;;;;;;;4.78;2.88;;;;;;;-142.75;100.00;78858.31;5071346;28;20048;-67
2022/04/27 05:33:57;;;;;;;6.30;3.37;;;;;;;-142.75;100.00;78814.97;5091501;28;20034;-67
2022/04/27 05:36:23;;;;;;;6.70;4.07;;;;;;;-142.75;100.00;78818.91;5091168;28;20150;-66
2022/04/27 05:38:49;;;;;;;9.30;4.73;;;;;;;-142.75;100.00;78791.34;5091125;28;20285;-66
2022/04/27 05:41:14;;;;;;;9.32;4.88;;;;;;;-142.75;100.00;78779.53;5070777;28;20266;-66
2022/04/27 05:43:39;;;;;;;9.15;4.82;;;;;;;-142.75;100.00;78746.03;5070934;28;20021;-66
2022/04/27 05:46:06;;;;;;;10.05;4.95;;;;;;;-142.75;100.00;78720.44;5071573;28;20077;-66
2022/04/27 05:48:31;;;;;;;10.53;5.10;;;;;;;-142.75;100.00;78708.63;5070740;28;20032;-66
2022/04/27 05:50:58;;;;;;;10.20;5.35;;;;;;;-142.75;100.00;78683.03;5070112;28;20032;-65
2022/04/27 05:53:23;;;;;;;12.97;6.07;;;;;;;-142.75;100.00;78669.25;5073776;28;20454;-66
2022/04/27 05:55:48;;;;;;;12.60;6.43;;;;;;;-142.75;100.00;78651.50;5070429;28;20044;-66
2022/04/27 05:58:13;;;;;;;12.73;6.17;;;;;;;-142.75;100.00;78633.78;5070367;28;20274;-66
2022/04/27 06:00:39;;;;;;;9.85;5.57;;;;;;;-142.75;100.00;78625.91;5070090;28;20020;-66
2022/04/27 06:03:04;;;;;;;11.45;5.88;;;;;;;-142.75;100.00;78600.31;5071033;28;20469;-66
2022/04/27 06:05:29;;;;;;;11.52;5.88;;;;;;;-142.75;100.00;78576.66;5071047;28;20020;-66
2022/04/27 06:07:54;;;;;;;10.27;5.97;;;;;;;-142.75;100.00;78541.22;5070697;28;20025;-66
2022/04/27 06:10:20;;;;;;;11.03;6.23;;;;;;;-142.75;100.00;78507.75;5069058;28;20286;-66
2022/04/27 06:12:46;;;;;;;11.70;5.97;;;;;;;-142.75;100.00;78486.06;5070739;28;20283;-67
2022/04/27 06:15:13;;;;;;;10.10;5.20;;;;;;;-142.75;100.00;78456.53;5072708;28;20036;-67
2022/04/27 06:17:38;;;;;;;10.67;6.13;;;;;;;-142.75;100.00;78425.03;5091247;28;20402;-66
2022/04/27 06:20:04;;;;;;;11.60;5.87;;;;;;;-142.75;100.00;78389.56;5092109;28;20032;-68
2022/04/27 06:22:30;;;;;;;;;;;;;;;-142.75;100.00;78354.13;5092628;28;20283;-65
2022/04/27 06:24:55;;;;;;;9.65;5.18;;;;;;;-142.75;100.00;78332.47;5091368;28;19911;-66
2022/04/27 06:27:20;;;;;;;7.67;4.80;;;;;;;-142.75;100.00;78302.94;5091218;28;20093;-66
2022/04/27 06:29:45;;;;;;;11.18;5.55;;;;;;;-142.75;100.00;78249.75;5091445;28;20281;-65
2022/04/27 06:32:11;;;;;;;7.77;4.87;;;;;;;-142.75;100.00;78228.09;5091443;28;20461;-65
2022/04/27 06:34:36;;;;;;;11.45;4.70;;;;;;;-142.75;100.00;78208.41;5091626;28;20284;-64
2022/04/27 06:37:01;;;;;;;8.45;4.15;;;;;;;-142.75;100.00;78182.81;5091645;28;20047;-65
2022/04/27 06:39:27;;;;;;;8.35;4.03;;;;;;;-142.75;100.00;78153.25;5091170;28;20503;-66
2022/04/27 06:41:52;;;;;;;6.55;3.83;;;;;;;-142.75;100.00;78123.72;5082977;28;20025;-66
2022/04/27 06:44:17;;;;;;;10.00;4.80;;;;;;;-142.75;100.00;78086.31;5071490;28;20069;-66
2022/04/27 06:46:43;;;;;;;8.85;4.50;;;;;;;-142.75;100.00;78062.69;5071738;28;20039;-66
2022/04/27 06:49:08;;;;;;;5.93;3.27;;;;;;;-142.75;100.00;78082.38;5071326;28;20024;-66
2022/04/27 06:51:33;;;;;;;6.40;3.53;;;;;;;-142.75;100.00;78117.81;5070466;28;20668;-66
2022/04/27 06:53:58;;;;;;;7.25;3.88;;;;;;;-142.75;100.00;78100.09;5072262;28;20028;-66
2022/04/27 06:56:24;;;;;;;8.18;4.40;;;;;;;-142.75;100.00;78094.19;5072080;28;20033;-66
2022/04/27 06:58:50;;;;;;;8.63;4.32;;;;;;;-142.75;100.00;78135.53;5070553;28;20081;-65
2022/04/27 07:01:17;;;;;;;9.02;4.30;;;;;;;-142.75;100.00;78137.50;5068931;28;20036;-66
2022/04/27 07:03:43;;;;;;;6.72;4.30;;;;;;;-142.75;100.00;78157.19;5083467;28;20276;-65
2022/04/27 07:06:09;;;;;;;10.57;4.53;;;;;;;-142.75;100.00;78149.31;5069395;28;20177;-65
2022/04/27 07:08:35;;;;;;;10.30;4.70;;;;;;;-142.75;100.00;78180.81;5070552;28;20081;-64
2022/04/27 07:11:01;;;;;;;11.13;4.88;;;;;;;-142.75;100.00;78167.03;5082878;28;20024;-64
2022/04/27 07:13:26;;;;;;;7.90;4.47;;;;;;;-142.75;100.00;78159.16;5090797;28;20027;-65
2022/04/27 07:15:56;;;;;;;10.00;5.00;;;;;;;-142.75;100.00;78163.09;5086945;28;20028;-68
2022/04/27 07:18:22;;;;;;;10.77;4.70;;;;;;;-142.75;100.00;78180.81;5090700;28;20463;-65
2022/04/27 07:20:47;;;;;;;8.13;4.65;;;;;;;-142.75;100.00;78161.13;5088720;28;20161;-65
2022/04/27 07:23:12;;;;;;;8.75;3.85;;;;;;;-142.75;100.00;78149.31;5088852;28;20034;-66
2022/04/27 07:25:37;;;;;;;;;;;;;;;-142.75;100.00;78137.50;5074776;28;20170;-65
2022/04/27 07:28:03;;;;;;;10.05;4.25;;;;;;;-142.75;100.00;78131.59;5070731;28;19939;-66
2022/04/27 07:30:28;;;;;;;9.23;4.38;;;;;;;-142.75;100.00;78117.81;5069992;28;20078;-66
2022/04/27 07:32:54;;;;;;;8.48;4.00;;;;;;;-142.75;100.00;78113.88;5070107;28;20020;-64
2022/04/27 07:35:19;;;;;;;8.05;3.63;;;;;;;-142.75;100.00;78107.97;5070004;28;20111;-66
2022/04/27 07:37:45;;;;;;;6.75;4.03;;;;;;;-142.75;100.00;78058.72;5069692;28;20069;-66
2022/04/27 07:40:12;;;;;;;6.82;3.92;;;;;;;-142.75;100.00;78090.25;5069610;28;20064;-65
2022/04/27 07:42:38;;;;;;;10.75;3.38;;;;;;;-142.75;100.00;78088.28;5069879;28;20033;-66
2022/04/27 07:45:08;;;;;;;9.15;2.90;;;;;;;-142.75;100.00;78070.56;5070221;28;20043;-65
2022/04/27 07:47:43;;;;;;;6.38;2.78;;;;;;;-142.75;100.00;78054.81;5088361;28;20027;-66
2022/04/27 07:50:10;;;;;;;9.00;3.88;;;;;;;-142.75;100.00;78092.22;5089506;28;20442;-66
2022/04/27 07:52:36;;;;;;;10.00;2.85;;;;;;;-142.75;100.00;78090.25;5089176;28;20072;-64
2022/04/27 07:55:02;;;;;;;4.65;2.20;;;;;;;-142.75;100.00;78102.06;5082852;28;20027;-65
2022/04/27 07:57:29;;;;;;;7.90;2.60;;;;;;;-142.75;100.00;78100.09;5070151;28;20031;-65
2022/04/27 07:59:55;;;;;;;5.32;2.53;;;;;;;-142.75;100.00;78078.44;5088745;28;20495;-64
2022/04/27 08:02:20;;;;;;;7.63;2.30;;;;;;;-142.75;100.00;78074.50;5089274;28;20032;-66
2022/04/27 08:04:45;;;;;;;;;;;;;;;-142.75;100.00;78094.19;5090008;28;20020;-65
2022/04/27 08:07:10;;;;;;;6.50;1.65;;;;;;;-142.75;100.00;78109.94;5089823;28;19923;-64
2022/04/27 08:09:36;;;;;;;2.95;1.33;;;;;;;-142.75;100.00;78109.94;5089541;28;20032;-65
2022/04/27 08:12:01;;;;;;;6.68;1.80;;;;;;;-142.75;100.00;78117.81;5089900;28;20031;-67
2022/04/27 08:14:26;;;;;;;5.25;2.08;;;;;;;-142.75;100.00;78121.75;5090663;28;20020;-66
2022/04/27 08:16:52;;;;;;;2.22;1.08;;;;;;;-142.75;100.00;78131.59;5090020;28;20039;-66
2022/04/27 08:19:17;;;;;;;;;;;;;;;-142.75;100.00;78174.91;5089679;28;20495;-66
2022/04/27 08:21:43;;;;;;;3.88;1.60;;;;;;;-142.75;100.00;78165.06;5089214;28;20006;-65
2022/04/27 08:24:11;;;;;;;8.40;1.83;;;;;;;-142.75;100.00;78170.97;5089335;28;20028;-65
2022/04/27 08:26:36;;;;;;;5.45;1.98;;;;;;;-142.75;100.00;78182.81;5089180;28;20127;-66
2022/04/27 08:29:01;;;;;;;6.10;2.28;;;;;;;-142.75;100.00;78184.78;5089556;28;20154;-65
2022/04/27 08:31:27;;;;;;;5.85;2.22;;;;;;;-142.75;100.00;78212.34;5088693;28;20026;-65
2022/04/27 08:33:52;;;;;;;5.13;2.40;;;;;;;-142.75;100.00;78212.34;5088933;28;20055;-66
2022/04/27 08:36:17;;;;;;;5.18;2.28;;;;;;;-142.75;100.00;78202.50;5089383;28;20115;-66
2022/04/27 08:38:43;;;;;;;4.57;2.53;;;;;;;-142.75;100.00;78206.44;5089044;28;20472;-66
2022/04/27 08:41:08;;;;;;;4.57;2.40;;;;;;;-142.75;100.00;78216.28;5089017;28;20020;-66
2022/04/27 08:43:33;;;;;;;3.88;2.42;;;;;;;-142.75;100.00;78212.34;5087918;28;20886;-64
2022/04/27 08:46:03;;;;;;;3.33;1.80;;;;;;;-142.75;100.00;78214.31;5089584;28;20031;-66
2022/04/27 08:48:29;;;;;;;5.65;1.60;;;;;;;-142.75;100.00;78226.13;5089041;28;20084;-65
2022/04/27 08:50:54;;;;;;;5.28;1.80;;;;;;;-142.75;100.00;78208.41;5088725;28;20513;-66
2022/04/27 08:53:20;;;;;;;;;;;;;;;-142.75;100.00;78200.53;5089476;28;20069;-65
2022/04/27 08:55:45;;;;;;;7.00;1.60;;;;;;;-142.75;100.00;78212.34;5088886;28;20038;-65
2022/04/27 08:58:12;;;;;;;3.58;1.83;;;;;;;-142.75;100.00;78212.34;5089260;28;20374;-66
2022/04/27 09:00:39;;;;;;;3.60;1.65;;;;;;;-142.75;100.00;78202.50;5088018;28;20024;-66
2022/04/27 09:03:41;;;;;;;4.20;1.52;;;;;;;-142.75;100.00;78206.44;5078938;28;20050;-67
2022/04/27 09:06:10;;;;;;;5.20;1.38;;;;;;;-142.75;100.00;78214.31;4987206;28;20030;-65
2022/04/27 09:08:38;;;;;;;6.57;1.38;;;;;;;-142.75;100.00;78210.38;5054054;28;20029;-66
2022/04/27 09:11:30;;;;;;;5.40;1.17;;;;;;;-142.75;100.00;78210.38;5068476;28;20085;-65
2022/04/27 09:13:58;;;;;;;4.90;1.23;;;;;;;-142.75;100.00;78202.50;5085711;28;20043;-64
2022/04/27 09:20:46;;;;;;;2.88;1.55;;;;;;;-142.75;100.00;78216.28;5089479;28;20035;-64
2022/04/27 09:22:04;;;;;;;2.45;1.45;;;;;;;-142.75;100.00;78220.22;5088717;28;20102;-66
2022/04/27 09:24:47;;;;;;;3.72;1.40;;;;;;;-142.75;100.00;78206.44;5088880;28;20026;-64
2022/04/27 09:27:16;;;;;;;4.15;1.55;;;;;;;-142.75;100.00;78200.53;5087748;28;20024;-66
2022/04/27 09:29:41;;;;;;;3.70;1.60;;;;;;;-142.75;100.00;78182.81;5088390;28;20024;-66
2022/04/27 09:32:08;;;;;;;4.15;1.88;;;;;;;-142.75;100.00;78180.81;5088110;28;20032;-66
2022/04/27 09:34:47;;;;;;;3.80;1.80;;;;;;;-142.75;100.00;78161.13;5088403;28;20032;-66
2022/04/27 09:37:14;;;;;;;3.60;1.63;;;;;;;-142.75;100.00;78157.19;5068198;28;20040;-66
2022/04/27 09:39:41;;;;;;;3.67;1.67;;;;;;;-142.75;100.00;78145.38;5068295;28;20633;-64
2022/04/27 09:42:08;;;;;;;3.88;1.60;;;;;;;-142.75;100.00;78141.44;5087229;28;20020;-66
2022/04/27 09:44:36;;;;;;;4.38;2.20;;;;;;;-142.75;100.00;78145.38;5088802;28;20121;-66
2022/04/27 09:47:03;;;;;;;5.43;1.95;;;;;;;-142.75;100.00;78149.31;5090910;28;20489;-66
2022/04/27 09:49:31;;;;;;;6.40;1.70;;;;;;;-142.75;100.00;78172.94;5092050;28;20082;-64
2022/04/27 09:51:57;;;;;;;3.90;2.20;;;;;;;-142.75;100.00;78147.34;5090957;28;20042;-65
2022/04/27 09:54:25;;;;;;;4.60;2.40;;;;;;;-142.75;100.00;78141.44;5091619;28;20116;-67
2022/04/27 09:56:56;;;;;;;3.45;2.00;;;;;;;-142.75;100.00;78141.44;5092909;28;20038;-66
2022/04/27 09:59:26;;;;;;;6.13;2.38;;;;;;;-142.75;100.00;78131.59;5092704;28;20480;-66
2022/04/27 10:01:54;;;;;;;4.13;1.90;;;;;;;-142.75;100.00;78125.69;5092694;28;20024;-66
2022/04/27 10:04:21;;;;;;;4.55;2.10;;;;;;;-142.75;100.00;78123.72;5092581;28;20020;-67
2022/04/27 10:06:47;;;;;;;3.80;2.30;;;;;;;-142.75;100.00;78111.91;5092520;28;20115;-66
2022/04/27 10:11:44;;;;;;;4.53;2.63;;;;;;;-142.75;100.00;78092.22;5072412;22;20049;-69
2022/04/27 10:14:10;;;;;;;7.18;2.60;;;;;;;-142.75;100.00;78082.38;5051170;28;20044;-67
2022/04/27 10:16:36;;;;;;;4.25;2.70;;;;;;;-142.75;100.00;78060.72;5035296;28;20579;-67
2022/04/27 10:19:02;;;;;;;5.22;2.40;;;;;;;-142.75;100.00;78058.72;5052471;28;20025;-67
2022/04/27 10:21:39;;;;;;;11.18;2.78;;;;;;;-142.75;100.00;78037.06;5051981;28;20024;-67
2022/04/27 10:24:06;;;;;;;5.00;2.40;;;;;;;-142.75;100.00;78017.38;5052219;28;20083;-67
2022/04/27 10:26:32;;;;;;;5.82;2.80;;;;;;;-142.75;97.88;78007.53;5052333;28;20435;-67
2022/04/27 10:29:00;;;;;;;6.75;3.58;;;;;;;-142.75;97.10;77974.06;5052043;28;20044;-68
2022/04/27 10:31:40;;;;;;;10.95;2.97;;;;;;;-142.75;95.13;77940.59;5051310;28;20489;-66
2022/04/27 10:34:17;;;;;;;6.30;2.92;;;;;;;-142.75;97.87;77913.03;5054842;28;20051;-68
2022/04/27 10:36:43;;;;;;;5.25;2.90;;;;;;;-142.75;94.98;77873.63;5072195;28;20447;-67
2022/04/27 10:39:09;;;;;;;4.70;2.72;;;;;;;-142.75;88.32;77794.88;5071911;28;20102;-69
2022/04/27 10:41:34;;;;;;;6.00;3.20;;;;;;;-142.75;92.18;77731.88;5052813;28;20053;-68
2022/04/27 10:43:59;;;;;;;8.55;3.30;;;;;;;-142.75;88.85;77723.97;5052006;28;20279;-67
2022/04/27 10:46:38;;;;;;;;;;;;;;;-142.75;82.88;77686.56;5052722;28;20017;-66
2022/04/27 10:49:27;;;;;;;8.00;3.22;;;;;;;-142.75;83.10;77712.16;5070755;28;19946;-67
2022/04/27 10:52:06;;;;;;;6.28;3.15;;;;;;;-142.75;81.62;77696.41;5071257;28;20154;-67
2022/04/27 10:54:34;;;;;;;5.88;2.60;;;;;;;-142.75;87.07;77706.25;5071369;28;20044;-66
2022/04/27 10:57:14;;;;;;;3.97;2.50;;;;;;;-142.75;83.07;77729.88;5070997;28;20028;-67
2022/04/27 10:59:45;;;;;;;5.80;2.80;;;;;;;-142.75;80.28;77763.38;5069816;28;20100;-67
2022/04/27 11:02:33;;;;;;;6.68;2.60;;;;;;;-142.75;92.02;77790.94;5071167;28;20069;-67
2022/04/27 11:05:00;;;;;;;4.80;3.15;;;;;;;-142.75;83.36;77798.81;5071534;28;20066;-67
2022/04/27 11:07:34;;;;;;;5.25;2.22;;;;;;;-142.75;87.28;77804.72;5053539;28;20017;-67
2022/04/27 11:10:17;;;;;;;5.15;2.63;;;;;;;-142.75;92.90;77808.66;5070619;28;20034;-67
2022/04/27 11:12:46;;;;;;;7.45;2.45;;;;;;;-142.75;91.97;77822.44;5071111;28;20093;-67
2022/04/27 11:15:15;;;;;;;6.28;2.70;;;;;;;-142.75;92.80;77814.56;5071508;28;20032;-68
2022/04/27 11:17:40;;;;;;;7.22;2.38;;;;;;;-142.75;93.20;77790.94;5071285;28;20032;-68
2022/04/27 11:20:22;;;;;;;6.78;2.30;;;;;;;-142.75;87.26;77859.84;5070826;28;20499;-67
2022/04/27 11:22:47;;;;;;;5.53;2.00;;;;;;;-142.75;91.38;77800.78;5051135;28;20446;-67
2022/04/27 11:25:21;;;;;;;5.93;2.50;;;;;;;-142.75;92.51;77794.88;5032987;28;20115;-67
2022/04/27 11:27:47;;;;;;;5.78;2.58;;;;;;;-142.75;87.38;77816.53;5033213;28;20036;-67